sensor_id;sensor_type;location;lat;lon;timestamp;pressure;altitude;pressure_sealevel;temperature;humidity
31183;BME280;17813;0.000;0.000;2023-06-26T00:01:28;99387.13;;;18.61;78.39
31183;BME280;17813;0.000;0.000;2023-06-26T00:04:18;99391.06;;;18.57;78.61
31183;BME280;17813;0.000;0.000;2023-06-26T00:07:05;99385.53;;;18.59;78.14
31183;BME280;17813;0.000;0.000;2023-06-26T00:09:51;99385.13;;;18.63;77.47
31183;BME280;17813;0.000;0.000;2023-06-26T00:12:38;99388.38;;;18.57;78.00
31183;BME280;17813;0.000;0.000;2023-06-26T00:15:25;99384.00;;;18.56;78.07
31183;BME280;17813;0.000;0.000;2023-06-26T00:18:12;99388.66;;;18.54;78.10
31183;BME280;17813;0.000;0.000;2023-06-26T00:20:58;99383.28;;;18.54;77.93
31183;BME280;17813;0.000;0.000;2023-06-26T00:23:45;99375.69;;;18.50;78.10
31183;BME280;17813;0.000;0.000;2023-06-26T00:26:32;99383.06;;;18.38;78.86
31183;BME280;17813;0.000;0.000;2023-06-26T00:29:19;99378.69;;;18.37;78.79
31183;BME280;17813;0.000;0.000;2023-06-26T00:32:07;99378.16;;;18.34;78.47
31183;BME280;17813;0.000;0.000;2023-06-26T00:34:57;99379.84;;;18.35;78.45
31183;BME280;17813;0.000;0.000;2023-06-26T00:37:43;99374.44;;;18.44;78.04
31183;BME280;17813;0.000;0.000;2023-06-26T00:40:30;99384.91;;;18.38;78.49
31183;BME280;17813;0.000;0.000;2023-06-26T00:43:17;99376.03;;;18.27;78.57
31183;BME280;17813;0.000;0.000;2023-06-26T00:46:03;99380.31;;;18.20;79.48
31183;BME280;17813;0.000;0.000;2023-06-26T00:48:51;99379.59;;;18.09;80.09
31183;BME280;17813;0.000;0.000;2023-06-26T00:51:39;99379.31;;;18.02;80.60
31183;BME280;17813;0.000;0.000;2023-06-26T00:54:26;99369.84;;;18.08;79.88
31183;BME280;17813;0.000;0.000;2023-06-26T00:57:13;99378.19;;;18.05;79.86
31183;BME280;17813;0.000;0.000;2023-06-26T01:00:01;99372.56;;;17.98;79.95
31183;BME280;17813;0.000;0.000;2023-06-26T01:02:50;99366.06;;;17.91;80.46
31183;BME280;17813;0.000;0.000;2023-06-26T01:05:36;99366.91;;;17.91;80.29
31183;BME280;17813;0.000;0.000;2023-06-26T01:08:25;99355.06;;;17.84;80.65
31183;BME280;17813;0.000;0.000;2023-06-26T01:11:13;99356.78;;;17.76;81.10
31183;BME280;17813;0.000;0.000;2023-06-26T01:14:02;99361.88;;;17.69;81.73
31183;BME280;17813;0.000;0.000;2023-06-26T01:16:49;99359.31;;;17.67;81.93
31183;BME280;17813;0.000;0.000;2023-06-26T01:19:38;99356.78;;;17.76;81.16
31183;BME280;17813;0.000;0.000;2023-06-26T01:22:57;99356.47;;;17.59;81.35
31183;BME280;17813;0.000;0.000;2023-06-26T01:28:41;99345.47;;;17.53;81.50
31183;BME280;17813;0.000;0.000;2023-06-26T01:31:29;99350.00;;;17.52;81.31
31183;BME280;17813;0.000;0.000;2023-06-26T01:34:17;99349.44;;;17.49;81.37
31183;BME280;17813;0.000;0.000;2023-06-26T01:37:04;99349.00;;;17.44;81.88
31183;BME280;17813;0.000;0.000;2023-06-26T01:39:51;99347.72;;;17.48;81.68
31183;BME280;17813;0.000;0.000;2023-06-26T01:42:38;99340.41;;;17.40;82.08
31183;BME280;17813;0.000;0.000;2023-06-26T01:45:27;99339.41;;;17.41;81.54
31183;BME280;17813;0.000;0.000;2023-06-26T01:48:22;99339.81;;;17.36;81.94
31183;BME280;17813;0.000;0.000;2023-06-26T01:51:11;99328.81;;;17.40;81.50
31183;BME280;17813;0.000;0.000;2023-06-26T01:54:01;99330.53;;;17.41;81.42
31183;BME280;17813;0.000;0.000;2023-06-26T01:56:50;99328.41;;;17.34;81.68
31183;BME280;17813;0.000;0.000;2023-06-26T01:59:41;99337.44;;;17.33;81.77
31183;BME280;17813;0.000;0.000;2023-06-26T02:02:29;99325.44;;;17.28;82.28
31183;BME280;17813;0.000;0.000;2023-06-26T02:05:16;99331.66;;;17.28;82.88
31183;BME280;17813;0.000;0.000;2023-06-26T02:08:03;99330.09;;;17.35;82.35
31183;BME280;17813;0.000;0.000;2023-06-26T02:10:50;99326.84;;;17.32;82.30
31183;BME280;17813;0.000;0.000;2023-06-26T02:13:36;99324.59;;;17.27;82.49
31183;BME280;17813;0.000;0.000;2023-06-26T02:16:23;99332.06;;;17.14;82.58
31183;BME280;17813;0.000;0.000;2023-06-26T02:19:10;99336.00;;;17.10;82.76
31183;BME280;17813;0.000;0.000;2023-06-26T02:21:56;99326.41;;;17.08;82.66
31183;BME280;17813;0.000;0.000;2023-06-26T02:24:44;99323.44;;;17.01;82.47
31183;BME280;17813;0.000;0.000;2023-06-26T02:27:31;99325.13;;;17.02;82.29
31183;BME280;17813;0.000;0.000;2023-06-26T02:30:17;99324.84;;;17.05;81.83
31183;BME280;17813;0.000;0.000;2023-06-26T02:33:04;99322.75;;;17.09;81.90
31183;BME280;17813;0.000;0.000;2023-06-26T02:35:51;99328.53;;;17.14;81.70
31183;BME280;17813;0.000;0.000;2023-06-26T02:38:37;99324.88;;;17.24;80.90
31183;BME280;17813;0.000;0.000;2023-06-26T02:41:24;99322.75;;;17.28;80.58
31183;BME280;17813;0.000;0.000;2023-06-26T02:44:11;99326.00;;;17.22;80.83
31183;BME280;17813;0.000;0.000;2023-06-26T02:46:58;99320.91;;;17.09;81.26
31183;BME280;17813;0.000;0.000;2023-06-26T02:49:45;99322.59;;;17.00;81.57
31183;BME280;17813;0.000;0.000;2023-06-26T02:52:31;99327.38;;;16.97;82.13
31183;BME280;17813;0.000;0.000;2023-06-26T02:55:19;99327.81;;;17.02;81.36
31183;BME280;17813;0.000;0.000;2023-06-26T02:58:07;99326.09;;;16.91;81.86
31183;BME280;17813;0.000;0.000;2023-06-26T03:00:54;99319.63;;;16.84;82.23
31183;BME280;17813;0.000;0.000;2023-06-26T03:03:41;99325.22;;;16.71;82.64
31183;BME280;17813;0.000;0.000;2023-06-26T03:06:28;99319.03;;;16.81;82.04
31183;BME280;17813;0.000;0.000;2023-06-26T03:09:14;99315.38;;;16.82;82.13
31183;BME280;17813;0.000;0.000;2023-06-26T03:12:02;99318.34;;;16.79;82.18
31183;BME280;17813;0.000;0.000;2023-06-26T03:14:49;99314.41;;;16.83;81.93
31183;BME280;17813;0.000;0.000;2023-06-26T03:17:36;99314.94;;;16.77;82.36
31183;BME280;17813;0.000;0.000;2023-06-26T03:20:23;99314.09;;;16.66;82.75
31183;BME280;17813;0.000;0.000;2023-06-26T03:23:09;99308.53;;;16.58;82.99
31183;BME280;17813;0.000;0.000;2023-06-26T03:25:56;99305.28;;;16.55;83.26
31183;BME280;17813;0.000;0.000;2023-06-26T03:28:42;99308.38;;;16.50;83.77
31183;BME280;17813;0.000;0.000;2023-06-26T03:31:29;99303.28;;;16.47;84.02
31183;BME280;17813;0.000;0.000;2023-06-26T03:34:16;99311.19;;;16.49;84.18
31183;BME280;17813;0.000;0.000;2023-06-26T03:37:03;99309.06;;;16.52;84.43
31183;BME280;17813;0.000;0.000;2023-06-26T03:39:50;99304.22;;;16.67;83.47
31183;BME280;17813;0.000;0.000;2023-06-26T03:42:43;99307.06;;;16.75;82.84
31183;BME280;17813;0.000;0.000;2023-06-26T03:45:29;99292.69;;;16.86;82.73
31183;BME280;17813;0.000;0.000;2023-06-26T03:48:16;99301.44;;;16.97;82.62
31183;BME280;17813;0.000;0.000;2023-06-26T03:51:03;99291.44;;;17.09;82.12
31183;BME280;17813;0.000;0.000;2023-06-26T03:53:49;99295.13;;;17.18;81.87
31183;BME280;17813;0.000;0.000;2023-06-26T03:56:36;99289.44;;;17.50;81.28
31183;BME280;17813;0.000;0.000;2023-06-26T03:59:23;99296.69;;;18.06;79.80
31183;BME280;17813;0.000;0.000;2023-06-26T04:02:09;99292.81;;;18.65;78.05
31183;BME280;17813;0.000;0.000;2023-06-26T04:04:58;99294.69;;;19.17;76.73
31183;BME280;17813;0.000;0.000;2023-06-26T04:07:51;99290.78;;;19.65;74.52
31183;BME280;17813;0.000;0.000;2023-06-26T04:10:38;99286.06;;;20.19;73.40
31183;BME280;17813;0.000;0.000;2023-06-26T04:13:24;99291.13;;;20.56;71.55
31183;BME280;17813;0.000;0.000;2023-06-26T04:16:11;99280.31;;;20.90;70.35
31183;BME280;17813;0.000;0.000;2023-06-26T04:18:58;99277.34;;;21.17;69.55
31183;BME280;17813;0.000;0.000;2023-06-26T04:21:44;99275.00;;;21.55;67.95
31183;BME280;17813;0.000;0.000;2023-06-26T04:24:31;99272.09;;;21.97;67.35
31183;BME280;17813;0.000;0.000;2023-06-26T04:27:18;99276.47;;;22.54;64.94
31183;BME280;17813;0.000;0.000;2023-06-26T04:30:05;99274.91;;;22.98;64.07
31183;BME280;17813;0.000;0.000;2023-06-26T04:32:52;99271.84;;;23.55;62.23
31183;BME280;17813;0.000;0.000;2023-06-26T04:35:39;99274.34;;;24.09;60.35
31183;BME280;17813;0.000;0.000;2023-06-26T04:38:25;99268.00;;;24.46;59.00
31183;BME280;17813;0.000;0.000;2023-06-26T04:41:12;99267.13;;;24.75;57.44
31183;BME280;17813;0.000;0.000;2023-06-26T04:43:59;99261.00;;;24.88;56.71
31183;BME280;17813;0.000;0.000;2023-06-26T04:46:45;99254.38;;;25.54;55.34
31183;BME280;17813;0.000;0.000;2023-06-26T04:49:32;99256.50;;;25.80;54.38
31183;BME280;17813;0.000;0.000;2023-06-26T04:52:19;99253.16;;;26.41;53.77
31183;BME280;17813;0.000;0.000;2023-06-26T04:55:06;99254.38;;;26.79;51.29
31183;BME280;17813;0.000;0.000;2023-06-26T04:57:52;99252.56;;;27.00;50.74
31183;BME280;17813;0.000;0.000;2023-06-26T05:00:39;99252.41;;;27.34;50.07
31183;BME280;17813;0.000;0.000;2023-06-26T05:03:28;99244.06;;;27.82;49.13
31183;BME280;17813;0.000;0.000;2023-06-26T05:06:15;99243.59;;;28.11;48.39
31183;BME280;17813;0.000;0.000;2023-06-26T05:09:02;99240.59;;;28.39;45.79
31183;BME280;17813;0.000;0.000;2023-06-26T05:11:48;99244.59;;;28.95;45.82
31183;BME280;17813;0.000;0.000;2023-06-26T05:14:35;99239.81;;;29.22;43.53
31183;BME280;17813;0.000;0.000;2023-06-26T05:17:21;99242.00;;;29.69;43.73
31183;BME280;17813;0.000;0.000;2023-06-26T05:20:08;99236.31;;;30.14;42.18
31183;BME280;17813;0.000;0.000;2023-06-26T05:22:55;99236.47;;;30.56;40.73
31183;BME280;17813;0.000;0.000;2023-06-26T05:25:43;99236.56;;;30.67;40.51
31183;BME280;17813;0.000;0.000;2023-06-26T05:28:30;99239.41;;;30.91;40.06
31183;BME280;17813;0.000;0.000;2023-06-26T05:31:17;99243.00;;;31.21;39.64
31183;BME280;17813;0.000;0.000;2023-06-26T05:34:05;99248.25;;;31.23;39.67
31183;BME280;17813;0.000;0.000;2023-06-26T05:36:52;99238.00;;;31.72;39.02
31183;BME280;17813;0.000;0.000;2023-06-26T05:39:40;99231.22;;;31.97;38.27
31183;BME280;17813;0.000;0.000;2023-06-26T05:42:28;99227.16;;;32.12;37.26
31183;BME280;17813;0.000;0.000;2023-06-26T05:45:17;99224.16;;;32.13;37.38
31183;BME280;17813;0.000;0.000;2023-06-26T05:48:04;99227.63;;;32.72;37.11
31183;BME280;17813;0.000;0.000;2023-06-26T05:50:51;99233.66;;;32.98;36.23
31183;BME280;17813;0.000;0.000;2023-06-26T05:53:38;99231.00;;;33.31;35.40
31183;BME280;17813;0.000;0.000;2023-06-26T05:56:25;99228.91;;;33.38;35.45
31183;BME280;17813;0.000;0.000;2023-06-26T05:59:12;99224.53;;;33.88;34.40
31183;BME280;17813;0.000;0.000;2023-06-26T06:02:01;99217.66;;;34.07;34.15
31183;BME280;17813;0.000;0.000;2023-06-26T06:04:47;99229.25;;;34.47;33.16
31183;BME280;17813;0.000;0.000;2023-06-26T06:07:36;99226.50;;;34.47;32.57
31183;BME280;17813;0.000;0.000;2023-06-26T06:10:24;99231.41;;;34.67;32.56
31183;BME280;17813;0.000;0.000;2023-06-26T06:13:10;99233.16;;;34.73;33.52
31183;BME280;17813;0.000;0.000;2023-06-26T06:15:57;99224.66;;;35.29;32.27
31183;BME280;17813;0.000;0.000;2023-06-26T06:18:44;99224.06;;;35.86;31.66
31183;BME280;17813;0.000;0.000;2023-06-26T06:21:30;99214.91;;;36.22;31.21
31183;BME280;17813;0.000;0.000;2023-06-26T06:24:17;99211.75;;;36.46;31.06
31183;BME280;17813;0.000;0.000;2023-06-26T06:27:04;99216.66;;;35.91;29.72
31183;BME280;17813;0.000;0.000;2023-06-26T06:29:51;99205.69;;;36.49;30.22
31183;BME280;17813;0.000;0.000;2023-06-26T06:32:41;99209.31;;;36.54;29.57
31183;BME280;17813;0.000;0.000;2023-06-26T06:35:36;99207.13;;;36.14;29.09
31183;BME280;17813;0.000;0.000;2023-06-26T06:38:23;99204.75;;;36.95;29.58
31183;BME280;17813;0.000;0.000;2023-06-26T06:41:10;99204.19;;;36.93;29.52
31183;BME280;17813;0.000;0.000;2023-06-26T06:43:55;99198.19;;;37.42;29.99
31183;BME280;17813;0.000;0.000;2023-06-26T06:46:40;99189.59;;;37.64;28.38
31183;BME280;17813;0.000;0.000;2023-06-26T06:49:08;99193.94;;;38.21;27.39
31183;BME280;17813;0.000;0.000;2023-06-26T06:51:36;99194.16;;;38.40;26.89
31183;BME280;17813;0.000;0.000;2023-06-26T06:54:03;99189.13;;;38.52;26.88
31183;BME280;17813;0.000;0.000;2023-06-26T06:56:31;99198.03;;;38.98;26.63
31183;BME280;17813;0.000;0.000;2023-06-26T06:58:58;99202.13;;;39.16;25.37
31183;BME280;17813;0.000;0.000;2023-06-26T07:01:25;99201.03;;;39.12;25.27
31183;BME280;17813;0.000;0.000;2023-06-26T07:03:52;99204.09;;;39.10;25.82
31183;BME280;17813;0.000;0.000;2023-06-26T07:06:19;99207.19;;;38.93;25.42
31183;BME280;17813;0.000;0.000;2023-06-26T07:08:45;99197.66;;;38.66;25.75
31183;BME280;17813;0.000;0.000;2023-06-26T07:11:12;99196.03;;;39.14;25.98
31183;BME280;17813;0.000;0.000;2023-06-26T07:13:39;99186.91;;;39.08;25.55
31183;BME280;17813;0.000;0.000;2023-06-26T07:16:05;99193.34;;;39.38;25.31
31183;BME280;17813;0.000;0.000;2023-06-26T07:18:32;99192.91;;;39.89;24.60
31183;BME280;17813;0.000;0.000;2023-06-26T07:20:59;99188.69;;;40.20;24.34
31183;BME280;17813;0.000;0.000;2023-06-26T07:23:44;99184.84;;;39.87;24.36
31183;BME280;17813;0.000;0.000;2023-06-26T07:26:11;99189.59;;;39.58;24.80
31183;BME280;17813;0.000;0.000;2023-06-26T07:28:39;99190.16;;;39.83;24.75
31183;BME280;17813;0.000;0.000;2023-06-26T07:31:07;99188.34;;;40.03;24.14
31183;BME280;17813;0.000;0.000;2023-06-26T07:33:34;99174.78;;;39.96;23.44
31183;BME280;17813;0.000;0.000;2023-06-26T07:36:01;99170.44;;;40.38;24.57
31183;BME280;17813;0.000;0.000;2023-06-26T07:38:28;99176.84;;;40.57;23.80
31183;BME280;17813;0.000;0.000;2023-06-26T07:40:55;99171.31;;;41.32;24.14
31183;BME280;17813;0.000;0.000;2023-06-26T07:43:21;99166.16;;;42.04;23.19
31183;BME280;17813;0.000;0.000;2023-06-26T07:45:49;99156.72;;;42.69;21.84
31183;BME280;17813;0.000;0.000;2023-06-26T07:48:17;99166.81;;;43.15;21.65
31183;BME280;17813;0.000;0.000;2023-06-26T07:50:44;99155.81;;;43.63;21.90
31183;BME280;17813;0.000;0.000;2023-06-26T07:53:11;99162.13;;;43.46;20.51
31183;BME280;17813;0.000;0.000;2023-06-26T07:55:38;99168.44;;;42.93;21.35
31183;BME280;17813;0.000;0.000;2023-06-26T07:58:04;99162.56;;;42.45;21.55
31183;BME280;17813;0.000;0.000;2023-06-26T08:00:31;99149.66;;;42.08;20.97
31183;BME280;17813;0.000;0.000;2023-06-26T08:02:58;99153.34;;;42.45;21.71
31183;BME280;17813;0.000;0.000;2023-06-26T08:05:25;99149.75;;;42.44;21.02
31183;BME280;17813;0.000;0.000;2023-06-26T08:07:52;99148.97;;;42.66;20.93
31183;BME280;17813;0.000;0.000;2023-06-26T08:10:19;99149.66;;;42.85;22.20
31183;BME280;17813;0.000;0.000;2023-06-26T08:12:46;99147.66;;;43.44;20.33
31183;BME280;17813;0.000;0.000;2023-06-26T08:15:13;99146.06;;;43.52;20.33
31183;BME280;17813;0.000;0.000;2023-06-26T08:17:40;99143.03;;;44.02;20.33
31183;BME280;17813;0.000;0.000;2023-06-26T08:20:07;99133.56;;;44.68;18.97
31183;BME280;17813;0.000;0.000;2023-06-26T08:22:37;99141.16;;;44.85;19.86
31183;BME280;17813;0.000;0.000;2023-06-26T08:25:04;99140.66;;;45.35;19.32
31183;BME280;17813;0.000;0.000;2023-06-26T08:27:32;99135.22;;;45.30;17.15
31183;BME280;17813;0.000;0.000;2023-06-26T08:29:59;99134.97;;;44.00;17.85
31183;BME280;17813;0.000;0.000;2023-06-26T08:32:26;99134.47;;;43.36;19.08
31183;BME280;17813;0.000;0.000;2023-06-26T08:34:53;99131.91;;;43.71;19.87
31183;BME280;17813;0.000;0.000;2023-06-26T08:37:20;99135.94;;;43.34;19.04
31183;BME280;17813;0.000;0.000;2023-06-26T08:39:47;99135.97;;;43.65;19.28
31183;BME280;17813;0.000;0.000;2023-06-26T08:42:14;99121.22;;;44.61;18.57
31183;BME280;17813;0.000;0.000;2023-06-26T08:44:41;99127.84;;;44.91;17.39
31183;BME280;17813;0.000;0.000;2023-06-26T08:47:09;99117.94;;;45.10;17.44
31183;BME280;17813;0.000;0.000;2023-06-26T08:49:42;99118.34;;;45.64;17.24
31183;BME280;17813;0.000;0.000;2023-06-26T08:52:33;99120.91;;;45.05;16.69
31183;BME280;17813;0.000;0.000;2023-06-26T08:55:10;99121.16;;;45.64;17.03
31183;BME280;17813;0.000;0.000;2023-06-26T08:57:38;99121.00;;;45.52;15.87
31183;BME280;17813;0.000;0.000;2023-06-26T09:00:05;99108.97;;;45.51;17.19
31183;BME280;17813;0.000;0.000;2023-06-26T09:02:36;99127.09;;;45.63;17.15
31183;BME280;17813;0.000;0.000;2023-06-26T09:05:04;99117.19;;;45.57;16.73
31183;BME280;17813;0.000;0.000;2023-06-26T09:07:30;99119.19;;;45.56;17.04
31183;BME280;17813;0.000;0.000;2023-06-26T09:09:59;99117.47;;;45.81;15.98
31183;BME280;17813;0.000;0.000;2023-06-26T09:12:32;99117.94;;;45.83;15.33
31183;BME280;17813;0.000;0.000;2023-06-26T09:15:01;99116.25;;;45.91;16.54
31183;BME280;17813;0.000;0.000;2023-06-26T09:17:32;99109.41;;;44.98;15.70
31183;BME280;17813;0.000;0.000;2023-06-26T09:20:00;99102.31;;;45.01;15.73
31183;BME280;17813;0.000;0.000;2023-06-26T09:22:27;99110.38;;;44.94;15.59
31183;BME280;17813;0.000;0.000;2023-06-26T09:24:54;99098.19;;;44.64;15.79
31183;BME280;17813;0.000;0.000;2023-06-26T09:27:21;99094.91;;;44.70;15.33
31183;BME280;17813;0.000;0.000;2023-06-26T09:29:49;99094.69;;;44.32;16.84
31183;BME280;17813;0.000;0.000;2023-06-26T09:32:16;99094.84;;;43.87;16.72
31183;BME280;17813;0.000;0.000;2023-06-26T09:34:43;99088.38;;;44.09;16.59
31183;BME280;17813;0.000;0.000;2023-06-26T09:37:14;99094.28;;;44.08;17.27
31183;BME280;17813;0.000;0.000;2023-06-26T09:39:41;99084.09;;;44.12;15.55
31183;BME280;17813;0.000;0.000;2023-06-26T09:42:08;99083.34;;;43.89;16.18
31183;BME280;17813;0.000;0.000;2023-06-26T09:44:36;99082.47;;;43.71;16.80
31183;BME280;17813;0.000;0.000;2023-06-26T09:47:03;99092.06;;;43.87;16.81
31183;BME280;17813;0.000;0.000;2023-06-26T09:49:31;99101.50;;;44.09;15.96
31183;BME280;17813;0.000;0.000;2023-06-26T09:52:01;99086.94;;;44.29;16.72
31183;BME280;17813;0.000;0.000;2023-06-26T09:54:28;99096.22;;;44.64;15.77
31183;BME280;17813;0.000;0.000;2023-06-26T09:57:10;99083.72;;;44.62;15.20
31183;BME280;17813;0.000;0.000;2023-06-26T09:59:39;99079.44;;;44.55;15.19
31183;BME280;17813;0.000;0.000;2023-06-26T10:02:26;99074.34;;;44.01;14.92
31183;BME280;17813;0.000;0.000;2023-06-26T10:05:05;99073.91;;;43.68;15.26
31183;BME280;17813;0.000;0.000;2023-06-26T10:07:32;99067.41;;;43.50;15.94
31183;BME280;17813;0.000;0.000;2023-06-26T10:10:02;99073.09;;;43.67;16.08
31183;BME280;17813;0.000;0.000;2023-06-26T10:12:32;99067.03;;;42.53;16.30
31183;BME280;17813;0.000;0.000;2023-06-26T10:15:00;99064.06;;;42.72;16.50
31183;BME280;17813;0.000;0.000;2023-06-26T10:17:30;99064.28;;;42.98;16.33
31183;BME280;17813;0.000;0.000;2023-06-26T10:19:59;99060.09;;;43.31;16.27
31183;BME280;17813;0.000;0.000;2023-06-26T10:22:34;99062.38;;;43.29;17.28
31183;BME280;17813;0.000;0.000;2023-06-26T10:25:04;99057.22;;;43.54;15.87
31183;BME280;17813;0.000;0.000;2023-06-26T10:27:40;99053.38;;;43.72;15.16
31183;BME280;17813;0.000;0.000;2023-06-26T10:30:16;99052.44;;;43.85;15.92
31183;BME280;17813;0.000;0.000;2023-06-26T10:32:46;99049.63;;;43.77;16.63
31183;BME280;17813;0.000;0.000;2023-06-26T10:35:13;99049.81;;;43.89;16.79
31183;BME280;17813;0.000;0.000;2023-06-26T10:37:50;99059.81;;;42.75;15.43
31183;BME280;17813;0.000;0.000;2023-06-26T10:40:28;99055.56;;;42.77;17.92
31183;BME280;17813;0.000;0.000;2023-06-26T10:43:08;99059.34;;;42.95;18.03
31183;BME280;17813;0.000;0.000;2023-06-26T10:45:36;99046.09;;;43.00;18.33
31183;BME280;17813;0.000;0.000;2023-06-26T10:48:06;99052.91;;;42.36;17.30
31183;BME280;17813;0.000;0.000;2023-06-26T10:50:33;99038.63;;;41.88;18.94
31183;BME280;17813;0.000;0.000;2023-06-26T10:56:04;99034.88;;;41.51;19.61
31183;BME280;17813;0.000;0.000;2023-06-26T11:01:20;99031.06;;;41.47;19.96
31183;BME280;17813;0.000;0.000;2023-06-26T11:04:05;99022.44;;;41.16;19.63
31183;BME280;17813;0.000;0.000;2023-06-26T11:06:34;99032.16;;;40.67;20.92
31183;BME280;17813;0.000;0.000;2023-06-26T11:14:32;99017.13;;;39.93;21.24
31183;BME280;17813;0.000;0.000;2023-06-26T11:17:02;99011.44;;;40.03;21.39
31183;BME280;17813;0.000;0.000;2023-06-26T11:19:29;99005.94;;;39.98;20.86
31183;BME280;17813;0.000;0.000;2023-06-26T11:21:59;99006.19;;;39.78;20.92
31183;BME280;17813;0.000;0.000;2023-06-26T11:24:27;99002.63;;;39.53;21.27
31183;BME280;17813;0.000;0.000;2023-06-26T11:26:55;99008.53;;;39.42;21.42
31183;BME280;17813;0.000;0.000;2023-06-26T11:29:26;98997.69;;;39.45;20.44
31183;BME280;17813;0.000;0.000;2023-06-26T11:32:00;99001.44;;;39.60;21.35
31183;BME280;17813;0.000;0.000;2023-06-26T11:34:30;98992.56;;;39.58;20.98
31183;BME280;17813;0.000;0.000;2023-06-26T11:36:58;98988.13;;;39.80;20.76
31183;BME280;17813;0.000;0.000;2023-06-26T11:39:31;98985.31;;;39.62;20.83
31183;BME280;17813;0.000;0.000;2023-06-26T11:42:00;98993.69;;;39.33;21.36
31183;BME280;17813;0.000;0.000;2023-06-26T11:44:30;98985.41;;;39.28;22.06
31183;BME280;17813;0.000;0.000;2023-06-26T11:46:57;98981.56;;;39.47;21.06
31183;BME280;17813;0.000;0.000;2023-06-26T11:49:24;98979.88;;;39.51;21.21
31183;BME280;17813;0.000;0.000;2023-06-26T11:51:55;98983.88;;;39.16;20.75
31183;BME280;17813;0.000;0.000;2023-06-26T11:54:30;98981.34;;;39.20;21.85
31183;BME280;17813;0.000;0.000;2023-06-26T11:56:58;98983.53;;;39.47;21.96
31183;BME280;17813;0.000;0.000;2023-06-26T11:59:34;98973.97;;;39.58;22.83
31183;BME280;17813;0.000;0.000;2023-06-26T12:02:05;98979.41;;;39.87;22.62
31183;BME280;17813;0.000;0.000;2023-06-26T12:04:33;98973.16;;;40.00;21.42
31183;BME280;17813;0.000;0.000;2023-06-26T12:07:02;98977.22;;;39.65;20.94
31183;BME280;17813;0.000;0.000;2023-06-26T12:09:33;98979.91;;;39.46;22.25
31183;BME280;17813;0.000;0.000;2023-06-26T12:12:02;98978.75;;;39.76;21.83
31183;BME280;17813;0.000;0.000;2023-06-26T12:14:29;98980.97;;;39.98;21.55
31183;BME280;17813;0.000;0.000;2023-06-26T12:17:05;98981.56;;;39.95;21.17
31183;BME280;17813;0.000;0.000;2023-06-26T12:19:33;98976.53;;;39.97;21.47
31183;BME280;17813;0.000;0.000;2023-06-26T12:22:06;98968.63;;;39.85;21.77
31183;BME280;17813;0.000;0.000;2023-06-26T12:24:36;98962.91;;;39.77;20.72
31183;BME280;17813;0.000;0.000;2023-06-26T12:27:08;98965.75;;;39.72;21.05
31183;BME280;17813;0.000;0.000;2023-06-26T12:29:37;98968.69;;;39.80;21.26
31183;BME280;17813;0.000;0.000;2023-06-26T12:32:08;98964.72;;;39.86;20.62
31183;BME280;17813;0.000;0.000;2023-06-26T12:34:36;98956.44;;;39.63;20.69
31183;BME280;17813;0.000;0.000;2023-06-26T12:37:05;98954.13;;;39.22;20.99
31183;BME280;17813;0.000;0.000;2023-06-26T12:39:54;98965.94;;;38.75;21.16
31183;BME280;17813;0.000;0.000;2023-06-26T12:42:24;98962.56;;;38.44;21.46
31183;BME280;17813;0.000;0.000;2023-06-26T12:44:51;98953.00;;;37.82;20.51
31183;BME280;17813;0.000;0.000;2023-06-26T12:47:24;98948.13;;;37.48;22.62
31183;BME280;17813;0.000;0.000;2023-06-26T12:49:52;98950.28;;;37.66;22.88
31183;BME280;17813;0.000;0.000;2023-06-26T12:52:21;98952.03;;;38.02;22.56
31183;BME280;17813;0.000;0.000;2023-06-26T12:54:54;98942.63;;;38.42;21.46
31183;BME280;17813;0.000;0.000;2023-06-26T12:57:28;98937.19;;;38.66;22.37
31183;BME280;17813;0.000;0.000;2023-06-26T12:59:55;98939.81;;;38.81;22.02
31183;BME280;17813;0.000;0.000;2023-06-26T13:02:21;98928.81;;;39.00;21.99
31183;BME280;17813;0.000;0.000;2023-06-26T13:04:48;98929.09;;;38.98;21.47
31183;BME280;17813;0.000;0.000;2023-06-26T13:07:15;98934.78;;;39.17;21.88
31183;BME280;17813;0.000;0.000;2023-06-26T13:09:42;98929.34;;;39.07;21.53
31183;BME280;17813;0.000;0.000;2023-06-26T13:12:09;98917.66;;;39.10;21.63
31183;BME280;17813;0.000;0.000;2023-06-26T13:14:36;98912.63;;;38.83;22.17
31183;BME280;17813;0.000;0.000;2023-06-26T13:17:04;98908.22;;;38.82;21.78
31183;BME280;17813;0.000;0.000;2023-06-26T13:19:31;98903.53;;;38.77;20.89
31183;BME280;17813;0.000;0.000;2023-06-26T13:21:58;98903.44;;;38.58;21.10
31183;BME280;17813;0.000;0.000;2023-06-26T13:24:26;98905.47;;;38.48;20.70
31183;BME280;17813;0.000;0.000;2023-06-26T13:26:54;98905.16;;;38.20;20.82
31183;BME280;17813;0.000;0.000;2023-06-26T13:29:21;98905.47;;;38.09;21.91
31183;BME280;17813;0.000;0.000;2023-06-26T13:31:49;98905.84;;;37.97;21.69
31183;BME280;17813;0.000;0.000;2023-06-26T13:34:24;98899.94;;;37.70;21.83
31183;BME280;17813;0.000;0.000;2023-06-26T13:36:56;98888.75;;;37.85;22.12
31183;BME280;17813;0.000;0.000;2023-06-26T13:39:23;98883.19;;;37.90;22.24
31183;BME280;17813;0.000;0.000;2023-06-26T13:41:50;98886.34;;;38.12;22.63
31183;BME280;17813;0.000;0.000;2023-06-26T13:44:17;98868.56;;;38.23;22.90
31183;BME280;17813;0.000;0.000;2023-06-26T13:46:44;98863.38;;;38.46;22.74
31183;BME280;17813;0.000;0.000;2023-06-26T13:49:17;98862.16;;;38.57;22.12
31183;BME280;17813;0.000;0.000;2023-06-26T13:51:43;98862.44;;;38.60;22.38
31183;BME280;17813;0.000;0.000;2023-06-26T13:54:13;98871.22;;;38.68;21.56
31183;BME280;17813;0.000;0.000;2023-06-26T13:56:41;98860.81;;;38.54;20.89
31183;BME280;17813;0.000;0.000;2023-06-26T13:59:07;98860.16;;;38.34;20.86
31183;BME280;17813;0.000;0.000;2023-06-26T14:01:34;98854.41;;;37.91;21.23
31183;BME280;17813;0.000;0.000;2023-06-26T14:04:01;98865.66;;;37.60;21.88
31183;BME280;17813;0.000;0.000;2023-06-26T14:06:33;98869.38;;;37.36;22.03
31183;BME280;17813;0.000;0.000;2023-06-26T14:09:02;98868.34;;;37.11;22.19
31183;BME280;17813;0.000;0.000;2023-06-26T14:11:31;98870.94;;;36.87;21.85
31183;BME280;17813;0.000;0.000;2023-06-26T14:13:58;98883.69;;;36.48;22.39
31183;BME280;17813;0.000;0.000;2023-06-26T14:16:25;98916.75;;;36.02;23.68
31183;BME280;17813;0.000;0.000;2023-06-26T14:18:54;98955.28;;;35.19;27.67